createdAt,value
2023-04-26T00:02:07.945Z,6.95
2023-04-26T00:04:36.058Z,7.18
2023-04-26T00:07:04.278Z,6.90
2023-04-26T00:09:32.181Z,7.32
2023-04-26T00:12:00.234Z,7.93
2023-04-26T00:14:27.992Z,7.60
2023-04-26T00:16:55.842Z,6.68
2023-04-26T00:19:24.289Z,6.75
2023-04-26T00:21:51.601Z,6.70
2023-04-26T00:24:19.291Z,6.53
2023-04-26T00:26:47.262Z,6.50
2023-04-26T00:29:14.544Z,6.43
2023-04-26T00:31:42.157Z,7.03
2023-04-26T00:34:10.537Z,6.50
2023-04-26T00:36:37.991Z,6.43
2023-04-26T00:39:05.477Z,7.20
2023-04-26T00:41:32.832Z,7.18
2023-04-26T00:44:00.064Z,7.28
2023-04-26T00:46:29.078Z,7.18
2023-04-26T00:48:56.880Z,6.95
2023-04-26T00:51:24.216Z,7.28
2023-04-26T00:53:52.031Z,7.38
2023-04-26T00:56:20.093Z,7.20
2023-04-26T00:58:49.078Z,7.70
2023-04-26T01:01:17.620Z,7.32
2023-04-26T01:03:47.048Z,7.72
2023-04-26T01:06:15.072Z,7.32
2023-04-26T01:08:42.460Z,7.30
2023-04-26T01:11:13.193Z,7.40
2023-04-26T01:13:42.761Z,7.65
2023-04-26T01:16:12.303Z,14.55
2023-04-26T01:18:48.754Z,7.55
2023-04-26T01:21:24.641Z,7.63
2023-04-26T01:23:53.121Z,7.97
2023-04-26T01:26:21.887Z,7.53
2023-04-26T01:28:51.044Z,8.10
2023-04-26T01:31:18.487Z,7.30
2023-04-26T01:33:45.810Z,7.40
2023-04-26T01:36:13.590Z,8.00
2023-04-26T01:38:41.375Z,8.30
2023-04-26T01:41:08.589Z,7.90
2023-04-26T01:43:35.950Z,8.80
2023-04-26T01:46:06.694Z,7.35
2023-04-26T01:48:34.189Z,7.43
2023-04-26T01:51:02.312Z,8.25
2023-04-26T01:53:29.549Z,8.05
2023-04-26T01:56:04.335Z,7.90
2023-04-26T01:58:32.378Z,7.28
2023-04-26T02:01:07.932Z,7.47
2023-04-26T02:03:36.196Z,7.72
2023-04-26T02:06:04.231Z,7.85
2023-04-26T02:08:31.659Z,7.63
2023-04-26T02:10:59.058Z,7.53
2023-04-26T02:13:27.737Z,7.55
2023-04-26T02:15:55.130Z,7.88
2023-04-26T02:18:24.740Z,8.13
2023-04-26T02:20:52.414Z,7.60
2023-04-26T02:23:20.279Z,7.97
2023-04-26T02:25:49.190Z,7.32
2023-04-26T02:28:17.711Z,7.50
2023-04-26T02:30:45.182Z,7.32
2023-04-26T02:33:13.137Z,7.70
2023-04-26T02:35:41.116Z,7.70
2023-04-26T02:38:08.576Z,8.52
2023-04-26T02:40:36.943Z,7.43
2023-04-26T02:43:04.377Z,7.78
2023-04-26T02:45:34.106Z,7.90
2023-04-26T02:48:01.548Z,8.75
2023-04-26T02:50:29.715Z,7.95
2023-04-26T02:52:59.292Z,8.20
2023-04-26T02:55:26.775Z,8.98
2023-04-26T02:57:55.031Z,8.60
2023-04-26T03:00:25.273Z,8.50
2023-04-26T03:02:53.581Z,8.88
2023-04-26T03:05:21.091Z,7.88
2023-04-26T03:07:48.329Z,8.30
2023-04-26T03:10:16.202Z,8.50
2023-04-26T03:12:44.402Z,8.25
2023-04-26T03:15:12.859Z,8.05
2023-04-26T03:17:45.544Z,8.30
2023-04-26T03:20:14.297Z,8.73
2023-04-26T03:22:41.802Z,9.23
2023-04-26T03:25:10.323Z,9.10
2023-04-26T03:27:38.315Z,9.18
2023-04-26T03:30:06.423Z,9.05
2023-04-26T03:32:35.594Z,9.05
2023-04-26T03:35:02.964Z,8.70
2023-04-26T03:37:30.538Z,8.77
2023-04-26T03:40:04.286Z,9.02
2023-04-26T03:42:34.665Z,9.30
2023-04-26T03:45:02.287Z,9.40
2023-04-26T03:47:31.474Z,8.30
2023-04-26T03:49:58.825Z,9.07
2023-04-26T03:52:26.166Z,8.95
2023-04-26T03:54:53.704Z,9.13
2023-04-26T03:57:21.697Z,8.43
2023-04-26T03:59:48.974Z,9.40
2023-04-26T04:02:18.754Z,9.20
2023-04-26T04:04:46.618Z,9.18
2023-04-26T04:07:14.519Z,9.32
2023-04-26T04:09:41.898Z,10.07
2023-04-26T04:12:09.927Z,10.18
2023-04-26T04:14:37.235Z,10.00
2023-04-26T04:17:06.503Z,10.10
2023-04-26T04:19:34.734Z,10.13
2023-04-26T04:22:02.119Z,9.35
2023-04-26T04:24:34.394Z,9.07
2023-04-26T04:27:02.571Z,9.70
2023-04-26T04:29:31.713Z,9.85
2023-04-26T04:32:00.198Z,8.90
2023-04-26T04:34:35.831Z,9.20
2023-04-26T04:37:04.594Z,9.32
2023-04-26T04:39:32.352Z,8.68
2023-04-26T04:42:01.133Z,9.98
2023-04-26T04:44:30.551Z,9.23
2023-04-26T04:46:58.544Z,9.73
2023-04-26T04:49:26.535Z,9.50
2023-04-26T04:51:55.028Z,10.30
2023-04-26T04:54:22.668Z,10.00
2023-04-26T04:56:51.416Z,9.48
2023-04-26T04:59:19.895Z,9.07
2023-04-26T05:01:51.547Z,8.30
2023-04-26T05:04:20.644Z,9.48
2023-04-26T05:06:49.362Z,9.20
2023-04-26T05:09:17.943Z,9.55
2023-04-26T05:11:45.275Z,9.50
2023-04-26T05:14:13.586Z,9.32
2023-04-26T05:16:41.620Z,9.15
2023-04-26T05:19:09.943Z,8.88
2023-04-26T05:21:37.939Z,8.88
2023-04-26T05:24:06.852Z,8.25
2023-04-26T05:26:36.039Z,9.25
2023-04-26T05:29:22.250Z,8.30
2023-04-26T05:32:02.322Z,8.63
2023-04-26T05:34:56.530Z,8.75
2023-04-26T05:37:23.894Z,8.40
2023-04-26T05:39:52.533Z,8.23
2023-04-26T05:42:21.448Z,9.13
2023-04-26T05:44:49.484Z,8.82
2023-04-26T05:47:17.550Z,8.15
2023-04-26T05:49:46.352Z,8.23
2023-04-26T05:52:14.171Z,8.18
2023-04-26T05:54:42.355Z,7.25
2023-04-26T05:57:09.724Z,8.18
2023-04-26T05:59:40.704Z,8.38
2023-04-26T06:02:09.041Z,8.85
2023-04-26T06:04:36.607Z,7.40
2023-04-26T06:07:08.405Z,7.20
2023-04-26T06:09:36.066Z,7.00
2023-04-26T06:12:05.536Z,7.15
2023-04-26T06:14:36.245Z,7.38
2023-04-26T06:17:08.187Z,7.97
2023-04-26T06:19:35.928Z,6.93
2023-04-26T06:22:05.753Z,6.45
2023-04-26T06:24:34.065Z,7.72
2023-04-26T06:27:01.471Z,6.60
2023-04-26T06:29:32.716Z,7.30
2023-04-26T06:32:01.758Z,7.88
2023-04-26T06:34:29.750Z,6.97
2023-04-26T06:36:58.184Z,6.20
2023-04-26T06:39:26.259Z,6.13
2023-04-26T06:41:53.581Z,6.15
2023-04-26T06:44:37.261Z,6.03
2023-04-26T06:47:09.606Z,6.32
2023-04-26T06:49:39.930Z,5.63
2023-04-26T06:52:09.340Z,5.40
2023-04-26T06:54:46.307Z,6.40
2023-04-26T06:57:21.584Z,6.00
2023-04-26T06:59:48.882Z,5.20
2023-04-26T07:02:16.322Z,5.30
2023-04-26T07:04:44.122Z,4.97
2023-04-26T07:07:13.664Z,5.85
2023-04-26T07:09:41.249Z,5.75
2023-04-26T07:12:08.640Z,6.05
2023-04-26T07:14:40.546Z,4.82
2023-04-26T07:17:08.160Z,5.15
2023-04-26T07:19:35.887Z,5.22
2023-04-26T07:22:03.737Z,5.13
2023-04-26T07:24:31.450Z,5.15
2023-04-26T07:26:59.019Z,4.97
2023-04-26T07:29:26.377Z,5.20
2023-04-26T07:31:53.775Z,4.80
2023-04-26T07:34:21.183Z,4.70
2023-04-26T07:36:48.784Z,4.80
2023-04-26T07:39:16.779Z,4.90
2023-04-26T07:41:44.321Z,5.28
2023-04-26T07:44:11.674Z,4.63
2023-04-26T07:46:39.227Z,4.80
2023-04-26T07:49:06.697Z,4.85
2023-04-26T07:51:36.036Z,4.95
2023-04-26T07:54:03.353Z,4.15
2023-04-26T07:56:31.873Z,5.15
2023-04-26T07:58:59.092Z,4.65
2023-04-26T08:01:26.373Z,4.50
2023-04-26T08:03:55.207Z,4.10
2023-04-26T08:06:23.148Z,5.13
2023-04-26T08:08:51.120Z,4.45
2023-04-26T08:11:18.498Z,4.50
2023-04-26T08:13:46.451Z,5.00
2023-04-26T08:16:14.096Z,4.85
2023-04-26T08:18:42.783Z,4.90
2023-04-26T08:21:11.287Z,5.00
2023-04-26T08:23:38.754Z,4.80
2023-04-26T08:26:06.736Z,4.53
2023-04-26T08:28:34.073Z,4.95
2023-04-26T08:31:01.631Z,5.28
2023-04-26T08:33:29.143Z,5.10
2023-04-26T08:35:56.773Z,5.40
2023-04-26T08:38:24.867Z,5.10
2023-04-26T08:40:52.344Z,5.68
2023-04-26T08:43:19.742Z,5.00
2023-04-26T08:45:47.768Z,5.32
2023-04-26T08:48:16.594Z,4.97
2023-04-26T08:50:48.074Z,5.47
2023-04-26T08:53:18.357Z,5.10
2023-04-26T08:55:52.237Z,5.35
2023-04-26T08:58:20.162Z,5.22
2023-04-26T09:00:47.811Z,4.82
2023-04-26T09:03:15.420Z,5.05
2023-04-26T09:05:45.995Z,5.15
2023-04-26T09:08:20.471Z,5.80
2023-04-26T09:10:47.801Z,5.20
2023-04-26T09:13:15.188Z,5.07
2023-04-26T09:15:42.668Z,5.20
2023-04-26T09:18:24.004Z,5.10
2023-04-26T09:21:09.163Z,5.40
2023-04-26T09:23:36.742Z,5.60
2023-04-26T09:26:21.209Z,5.35
2023-04-26T09:28:50.789Z,5.20
2023-04-26T09:31:39.877Z,4.80
2023-04-26T09:34:07.305Z,5.13
2023-04-26T09:36:48.029Z,5.68
2023-04-26T09:39:15.706Z,5.57
2023-04-26T09:41:45.104Z,4.78
2023-04-26T09:44:25.184Z,5.75
2023-04-26T09:47:18.766Z,5.10
2023-04-26T09:49:52.203Z,5.38
2023-04-26T09:52:20.323Z,4.95
2023-04-26T09:54:47.684Z,5.75
2023-04-26T09:57:16.987Z,5.43
2023-04-26T09:59:45.473Z,5.50
2023-04-26T10:02:20.810Z,5.35
2023-04-26T10:04:50.621Z,5.05
2023-04-26T10:07:20.165Z,4.95
2023-04-26T10:09:48.550Z,5.30
2023-04-26T10:12:18.070Z,4.88
2023-04-26T10:14:46.966Z,5.63
2023-04-26T10:17:15.177Z,5.15
2023-04-26T10:19:46.825Z,5.60
2023-04-26T10:22:23.485Z,5.53
2023-04-26T10:24:53.998Z,5.80
2023-04-26T10:27:43.302Z,6.05
2023-04-26T10:30:15.552Z,5.40
2023-04-26T10:32:58.483Z,5.90
2023-04-26T10:35:28.220Z,5.78
2023-04-26T10:38:01.743Z,5.70
2023-04-26T10:40:32.440Z,5.68
2023-04-26T10:43:20.613Z,5.75
2023-04-26T10:45:49.178Z,5.97
2023-04-26T10:48:22.701Z,6.13
2023-04-26T10:51:02.609Z,6.05
2023-04-26T10:53:35.120Z,6.22
2023-04-26T10:56:03.201Z,5.80
2023-04-26T10:58:35.383Z,6.35
2023-04-26T11:01:14.680Z,6.28
2023-04-26T11:03:42.595Z,5.82
2023-04-26T11:06:13.935Z,5.97
2023-04-26T11:08:41.696Z,6.38
2023-04-26T11:11:12.384Z,5.80
2023-04-26T11:13:41.705Z,5.97
2023-04-26T11:16:14.170Z,5.88
2023-04-26T11:18:43.764Z,6.63
2023-04-26T11:21:15.444Z,5.70
2023-04-26T11:23:42.744Z,5.75
2023-04-26T11:26:10.191Z,6.05
2023-04-26T11:28:39.181Z,5.70
2023-04-26T11:31:07.649Z,6.63
2023-04-26T11:33:35.069Z,5.85
2023-04-26T11:36:03.766Z,6.75
2023-04-26T11:38:31.019Z,6.10
2023-04-26T11:41:03.796Z,6.00
2023-04-26T11:43:38.918Z,5.88
2023-04-26T11:46:08.870Z,6.05
2023-04-26T11:48:38.454Z,5.75
2023-04-26T11:51:07.656Z,6.55
2023-04-26T11:53:42.754Z,6.07
2023-04-26T11:56:20.812Z,6.30
2023-04-26T11:58:53.567Z,5.88
2023-04-26T12:01:26.608Z,5.93
2023-04-26T12:03:57.119Z,6.00
2023-04-26T12:06:31.515Z,5.95
2023-04-26T12:09:01.364Z,5.80
2023-04-26T12:11:30.222Z,7.20
2023-04-26T12:13:59.787Z,6.10
2023-04-26T12:16:27.531Z,6.07
2023-04-26T12:18:57.202Z,6.05
2023-04-26T12:21:25.621Z,6.15
2023-04-26T12:23:53.422Z,6.03
2023-04-26T12:26:21.074Z,6.10
2023-04-26T12:28:48.466Z,6.30
2023-04-26T12:31:16.132Z,6.60
2023-04-26T12:33:44.736Z,6.40
2023-04-26T12:36:13.539Z,6.65
2023-04-26T12:38:41.120Z,6.68
2023-04-26T12:41:08.608Z,6.60
2023-04-26T12:43:36.840Z,6.90
2023-04-26T12:46:06.279Z,6.53
2023-04-26T12:48:33.582Z,6.90
2023-04-26T12:51:00.819Z,6.47
2023-04-26T12:53:28.116Z,6.55
2023-04-26T12:55:55.645Z,6.20
2023-04-26T12:58:23.245Z,6.28
2023-04-26T13:00:52.055Z,6.00
2023-04-26T13:03:20.259Z,6.78
2023-04-26T13:05:47.806Z,7.05
2023-04-26T13:08:15.590Z,6.50
2023-04-26T13:10:43.243Z,6.50
2023-04-26T13:13:11.232Z,6.38
2023-04-26T13:15:39.836Z,6.20
2023-04-26T13:18:07.750Z,6.88
2023-04-26T13:20:36.072Z,6.45
2023-04-26T13:23:03.979Z,6.45
2023-04-26T13:25:31.281Z,6.60
2023-04-26T13:27:58.803Z,6.50
2023-04-26T13:30:27.114Z,6.10
2023-04-26T13:32:54.636Z,6.10
2023-04-26T13:35:23.189Z,5.85
2023-04-26T13:37:50.417Z,6.15
2023-04-26T13:40:19.048Z,5.90
2023-04-26T13:42:46.365Z,6.35
2023-04-26T13:45:13.722Z,6.40
2023-04-26T13:47:41.218Z,6.97
2023-04-26T13:50:08.994Z,6.80
2023-04-26T13:52:36.437Z,6.60
2023-04-26T13:55:04.532Z,6.65
2023-04-26T13:57:34.191Z,6.97
2023-04-26T14:00:01.866Z,6.45
2023-04-26T14:02:39.509Z,6.65
2023-04-26T14:05:09.639Z,6.20
2023-04-26T14:07:37.709Z,7.55
2023-04-26T14:10:05.701Z,6.80
2023-04-26T14:12:33.287Z,6.90
2023-04-26T14:15:04.198Z,6.97
2023-04-26T14:17:39.961Z,7.30
2023-04-26T14:20:08.721Z,7.00
2023-04-26T14:22:37.940Z,6.95
2023-04-26T14:25:05.898Z,7.18
2023-04-26T14:27:33.418Z,6.95
2023-04-26T14:30:00.648Z,6.63
2023-04-26T14:32:28.173Z,6.30
2023-04-26T14:34:55.737Z,6.60
2023-04-26T14:37:24.362Z,6.82
2023-04-26T14:39:51.700Z,6.20
2023-04-26T14:42:20.164Z,6.35
2023-04-26T14:44:47.769Z,6.20
2023-04-26T14:47:15.090Z,6.30
2023-04-26T14:49:42.403Z,6.72
2023-04-26T14:52:09.698Z,6.30
2023-04-26T14:54:40.756Z,5.63
2023-04-26T14:57:08.939Z,6.10
2023-04-26T14:59:36.985Z,6.15
2023-04-26T15:02:05.393Z,5.97
2023-04-26T15:04:33.046Z,6.65
2023-04-26T15:07:00.821Z,6.30
2023-04-26T15:09:30.403Z,6.40
2023-04-26T15:11:58.534Z,5.95
2023-04-26T15:14:25.803Z,6.38
2023-04-26T15:16:53.039Z,6.00
2023-04-26T15:19:22.013Z,6.03
2023-04-26T15:21:52.421Z,6.10
2023-04-26T15:24:19.787Z,6.10
2023-04-26T15:26:47.111Z,6.53
2023-04-26T15:29:14.515Z,7.07
2023-04-26T15:31:42.909Z,6.60
2023-04-26T15:34:10.149Z,6.05
2023-04-26T15:36:37.742Z,5.75
2023-04-26T15:39:05.421Z,5.53
2023-04-26T15:41:32.721Z,6.15
2023-04-26T15:44:00.211Z,6.10
2023-04-26T15:46:27.511Z,6.10
2023-04-26T15:48:54.965Z,6.82
2023-04-26T15:51:22.314Z,5.75
2023-04-26T15:53:51.531Z,5.80
2023-04-26T15:56:19.117Z,5.20
2023-04-26T15:58:47.311Z,5.78
2023-04-26T16:01:15.481Z,6.25
2023-04-26T16:03:46.550Z,6.07
2023-04-26T16:06:15.074Z,5.93
2023-04-26T16:08:42.548Z,6.40
2023-04-26T16:11:09.870Z,6.75
2023-04-26T16:13:37.543Z,6.13
2023-04-26T16:16:09.185Z,6.40
2023-04-26T16:18:39.660Z,6.10
2023-04-26T16:21:10.263Z,6.25
2023-04-26T16:23:38.080Z,6.20
2023-04-26T16:26:05.603Z,6.18
2023-04-26T16:28:32.939Z,6.22
2023-04-26T16:31:00.679Z,5.43
2023-04-26T16:33:28.413Z,6.00
2023-04-26T16:35:55.973Z,5.78
2023-04-26T16:38:23.496Z,6.60
2023-04-26T16:41:01.574Z,5.60
2023-04-26T16:43:30.441Z,6.10
2023-04-26T16:46:05.284Z,5.75
2023-04-26T16:48:37.562Z,6.18
2023-04-26T16:51:07.641Z,5.85
2023-04-26T16:53:36.147Z,6.28
2023-04-26T16:56:04.152Z,6.35
2023-04-26T16:58:31.676Z,6.20
2023-04-26T17:01:00.591Z,6.60
2023-04-26T17:03:29.760Z,6.68
2023-04-26T17:05:58.989Z,6.28
2023-04-26T17:08:27.444Z,5.70
2023-04-26T17:10:54.732Z,6.13
2023-04-26T17:13:22.662Z,6.20
2023-04-26T17:15:50.084Z,5.72
2023-04-26T17:18:17.415Z,5.60
2023-04-26T17:20:45.132Z,5.70
2023-04-26T17:23:12.395Z,5.50
2023-04-26T17:25:39.886Z,5.50
2023-04-26T17:28:07.136Z,5.68
2023-04-26T17:30:34.526Z,5.63
2023-04-26T17:33:01.954Z,6.35
2023-04-26T17:35:29.358Z,6.05
2023-04-26T17:37:56.713Z,6.60
2023-04-26T17:40:24.313Z,5.72
2023-04-26T17:42:51.755Z,5.85
2023-04-26T17:45:19.115Z,5.72
2023-04-26T17:47:46.646Z,6.07
2023-04-26T17:50:14.031Z,6.40
2023-04-26T17:52:41.961Z,6.00
2023-04-26T17:55:10.209Z,5.72
2023-04-26T17:57:37.930Z,5.68
2023-04-26T18:00:10.468Z,5.80
2023-04-26T18:02:38.431Z,5.53
2023-04-26T18:05:08.720Z,5.35
2023-04-26T18:07:37.256Z,5.47
2023-04-26T18:10:04.985Z,5.60
2023-04-26T18:12:32.989Z,6.18
2023-04-26T18:15:00.536Z,6.40
2023-04-26T18:17:28.246Z,5.95
2023-04-26T18:19:55.607Z,6.20
2023-04-26T18:22:23.208Z,5.68
2023-04-26T18:24:51.554Z,5.88
2023-04-26T18:27:18.932Z,5.60
2023-04-26T18:29:47.100Z,5.97
2023-04-26T18:32:15.243Z,6.10
2023-04-26T18:34:44.231Z,6.10
2023-04-26T18:37:11.727Z,6.80
2023-04-26T18:39:40.111Z,6.55
2023-04-26T18:42:07.549Z,6.55
2023-04-26T18:44:37.853Z,6.07
2023-04-26T18:47:06.143Z,6.47
2023-04-26T18:49:33.459Z,6.50
2023-04-26T18:52:01.746Z,6.30
2023-04-26T18:54:31.079Z,10.38
2023-04-26T18:56:59.400Z,8.23
2023-04-26T18:59:28.923Z,6.53
2023-04-26T19:01:56.677Z,6.05
2023-04-26T19:04:24.132Z,5.90
2023-04-26T19:06:51.880Z,6.22
2023-04-26T19:09:20.109Z,6.20
2023-04-26T19:11:48.177Z,6.13
2023-04-26T19:14:16.242Z,6.10
2023-04-26T19:16:44.154Z,6.32
2023-04-26T19:19:11.492Z,6.13
2023-04-26T19:21:39.102Z,5.65
2023-04-26T19:24:06.891Z,6.50
2023-04-26T19:26:40.056Z,7.38
2023-04-26T19:29:07.570Z,6.07
2023-04-26T19:31:35.087Z,6.53
2023-04-26T19:34:02.625Z,6.30
2023-04-26T19:36:30.091Z,5.93
2023-04-26T19:38:57.452Z,7.93
2023-04-26T19:41:25.000Z,7.75
2023-04-26T19:43:52.681Z,6.80
2023-04-26T19:46:20.075Z,6.80
2023-04-26T19:48:47.612Z,6.47
2023-04-26T19:51:17.185Z,6.10
2023-04-26T19:53:44.938Z,6.28
2023-04-26T19:56:12.483Z,6.15
2023-04-26T19:58:39.940Z,6.28
2023-04-26T20:01:07.284Z,6.05
2023-04-26T20:03:34.894Z,6.47
2023-04-26T20:06:02.430Z,6.72
2023-04-26T20:08:31.381Z,6.68
2023-04-26T20:11:03.652Z,7.95
2023-04-26T20:13:32.210Z,7.15
2023-04-26T20:16:00.099Z,7.38
2023-04-26T20:18:27.755Z,6.97
2023-04-26T20:20:55.759Z,7.72
2023-04-26T20:23:23.317Z,6.70
2023-04-26T20:25:51.692Z,6.38
2023-04-26T20:28:20.566Z,6.20
2023-04-26T20:30:48.766Z,6.55
2023-04-26T20:33:20.006Z,5.93
2023-04-26T20:35:47.892Z,6.75
2023-04-26T20:38:15.218Z,6.88
2023-04-26T20:40:43.366Z,6.78
2023-04-26T20:43:12.226Z,9.07
2023-04-26T20:45:42.519Z,8.75
2023-04-26T20:48:11.732Z,7.03
2023-04-26T20:50:39.492Z,7.18
2023-04-26T20:53:07.099Z,7.03
2023-04-26T20:55:34.496Z,7.38
2023-04-26T20:58:02.007Z,7.60
2023-04-26T21:00:29.556Z,7.55
2023-04-26T21:02:58.216Z,7.18
2023-04-26T21:05:26.007Z,8.30
2023-04-26T21:07:53.331Z,8.10
2023-04-26T21:10:20.916Z,8.40
2023-04-26T21:12:48.841Z,7.38
2023-04-26T21:15:16.184Z,7.95
2023-04-26T21:17:43.670Z,7.20
2023-04-26T21:20:11.824Z,7.53
2023-04-26T21:22:39.138Z,8.00
2023-04-26T21:25:06.679Z,7.63
2023-04-26T21:27:34.014Z,8.20
2023-04-26T21:30:01.905Z,7.70
2023-04-26T21:32:31.992Z,7.80
2023-04-26T21:35:00.180Z,7.35
2023-04-26T21:37:33.382Z,7.63
2023-04-26T21:40:02.946Z,9.50
2023-04-26T21:42:32.896Z,8.15
2023-04-26T21:45:00.510Z,7.15
2023-04-26T21:47:28.168Z,7.32
2023-04-26T21:49:56.270Z,8.48
2023-04-26T21:52:24.412Z,7.70
2023-04-26T21:54:52.957Z,7.63
2023-04-26T21:57:24.220Z,7.25
2023-04-26T21:59:51.777Z,7.50
2023-04-26T22:02:20.510Z,6.93
2023-04-26T22:04:47.731Z,7.32
2023-04-26T22:07:15.568Z,7.20
2023-04-26T22:09:43.090Z,6.65
2023-04-26T22:12:10.380Z,6.90
2023-04-26T22:14:37.752Z,6.90
2023-04-26T22:17:05.006Z,13.27
2023-04-26T22:19:32.782Z,12.82
2023-04-26T22:22:00.265Z,9.70
2023-04-26T22:24:29.701Z,8.80
2023-04-26T22:26:57.136Z,7.50
2023-04-26T22:29:24.428Z,7.15
2023-04-26T22:31:52.540Z,7.25
2023-04-26T22:34:20.333Z,6.78
2023-04-26T22:36:50.336Z,7.15
2023-04-26T22:39:17.623Z,7.30
2023-04-26T22:41:44.847Z,11.02
2023-04-26T22:44:12.998Z,11.70
2023-04-26T22:46:40.304Z,10.73
2023-04-26T22:49:07.950Z,8.27
2023-04-26T22:51:35.258Z,7.20
2023-04-26T22:54:03.975Z,7.63
2023-04-26T22:56:31.720Z,7.40
2023-04-26T22:58:59.018Z,7.70
2023-04-26T23:01:26.547Z,8.52
2023-04-26T23:03:54.734Z,7.50
2023-04-26T23:06:22.243Z,7.28
2023-04-26T23:08:49.544Z,7.65
2023-04-26T23:11:16.993Z,7.57
2023-04-26T23:13:44.516Z,7.72
2023-04-26T23:16:11.892Z,8.30
2023-04-26T23:18:43.452Z,8.57
2023-04-26T23:21:10.677Z,8.50
2023-04-26T23:23:37.961Z,8.10
2023-04-26T23:26:08.466Z,8.38
2023-04-26T23:28:36.334Z,8.15
2023-04-26T23:31:03.693Z,9.05
2023-04-26T23:33:31.027Z,8.73
2023-04-26T23:35:58.357Z,7.63
2023-04-26T23:38:26.056Z,8.60
2023-04-26T23:40:53.289Z,8.82
2023-04-26T23:43:21.014Z,8.02
2023-04-26T23:45:49.153Z,8.70
2023-04-26T23:48:17.768Z,8.68
2023-04-26T23:50:45.157Z,9.32
2023-04-26T23:53:12.660Z,9.13
2023-04-26T23:55:40.284Z,9.00
2023-04-26T23:58:07.845Z,8.75
